sensor_id;sensor_type;location;lat;lon;timestamp;P1;durP1;ratioP1;P2;durP2;ratioP2
21114;SDS011;10715;48.546;9.896;2024-02-15T00:00:04;3.73;;;2.00;;
21114;SDS011;10715;48.546;9.896;2024-02-15T00:02:33;3.23;;;2.77;;
21114;SDS011;10715;48.546;9.896;2024-02-15T00:04:58;2.27;;;2.07;;
21114;SDS011;10715;48.546;9.896;2024-02-15T00:07:24;1.70;;;1.03;;
21114;SDS011;10715;48.546;9.896;2024-02-15T00:09:51;1.73;;;1.30;;
21114;SDS011;10715;48.546;9.896;2024-02-15T00:12:18;1.70;;;1.10;;
21114;SDS011;10715;48.546;9.896;2024-02-15T00:14:44;3.47;;;1.20;;
21114;SDS011;10715;48.546;9.896;2024-02-15T00:17:10;1.50;;;1.17;;
21114;SDS011;10715;48.546;9.896;2024-02-15T00:19:36;1.27;;;0.83;;
21114;SDS011;10715;48.546;9.896;2024-02-15T00:22:05;0.93;;;0.80;;
21114;SDS011;10715;48.546;9.896;2024-02-15T00:24:30;1.90;;;0.90;;
21114;SDS011;10715;48.546;9.896;2024-02-15T00:26:56;1.40;;;0.60;;
21114;SDS011;10715;48.546;9.896;2024-02-15T00:29:22;1.40;;;0.70;;
21114;SDS011;10715;48.546;9.896;2024-02-15T00:31:49;1.47;;;0.90;;
21114;SDS011;10715;48.546;9.896;2024-02-15T00:34:15;1.10;;;0.60;;
21114;SDS011;10715;48.546;9.896;2024-02-15T00:36:42;3.03;;;1.00;;
21114;SDS011;10715;48.546;9.896;2024-02-15T00:39:09;1.13;;;0.87;;
21114;SDS011;10715;48.546;9.896;2024-02-15T00:41:36;2.00;;;1.23;;
21114;SDS011;10715;48.546;9.896;2024-02-15T00:44:06;1.70;;;1.13;;
21114;SDS011;10715;48.546;9.896;2024-02-15T00:46:33;2.60;;;1.17;;
21114;SDS011;10715;48.546;9.896;2024-02-15T00:49:00;1.57;;;1.20;;
21114;SDS011;10715;48.546;9.896;2024-02-15T00:51:25;1.77;;;1.33;;
21114;SDS011;10715;48.546;9.896;2024-02-15T00:53:51;4.93;;;0.60;;
21114;SDS011;10715;48.546;9.896;2024-02-15T00:56:17;1.50;;;1.10;;
21114;SDS011;10715;48.546;9.896;2024-02-15T00:58:42;1.07;;;0.70;;
21114;SDS011;10715;48.546;9.896;2024-02-15T01:01:08;1.07;;;0.70;;
21114;SDS011;10715;48.546;9.896;2024-02-15T01:03:35;1.77;;;0.70;;
21114;SDS011;10715;48.546;9.896;2024-02-15T01:06:01;2.53;;;0.50;;
21114;SDS011;10715;48.546;9.896;2024-02-15T01:08:27;0.90;;;0.60;;
21114;SDS011;10715;48.546;9.896;2024-02-15T01:10:53;1.30;;;0.70;;
21114;SDS011;10715;48.546;9.896;2024-02-15T01:13:19;1.00;;;0.60;;
21114;SDS011;10715;48.546;9.896;2024-02-15T01:15:45;1.30;;;1.00;;
21114;SDS011;10715;48.546;9.896;2024-02-15T01:18:11;1.70;;;1.03;;
21114;SDS011;10715;48.546;9.896;2024-02-15T01:20:37;0.90;;;0.60;;
21114;SDS011;10715;48.546;9.896;2024-02-15T01:23:03;1.20;;;0.60;;
21114;SDS011;10715;48.546;9.896;2024-02-15T01:25:30;4.10;;;0.73;;
21114;SDS011;10715;48.546;9.896;2024-02-15T01:27:55;1.00;;;0.90;;
21114;SDS011;10715;48.546;9.896;2024-02-15T01:30:21;1.50;;;0.70;;
21114;SDS011;10715;48.546;9.896;2024-02-15T01:32:47;1.23;;;0.80;;
21114;SDS011;10715;48.546;9.896;2024-02-15T01:35:13;0.90;;;0.60;;
21114;SDS011;10715;48.546;9.896;2024-02-15T01:37:39;1.53;;;0.53;;
21114;SDS011;10715;48.546;9.896;2024-02-15T01:40:05;1.20;;;0.60;;
21114;SDS011;10715;48.546;9.896;2024-02-15T01:42:31;1.10;;;0.97;;
21114;SDS011;10715;48.546;9.896;2024-02-15T01:44:57;1.13;;;0.80;;
21114;SDS011;10715;48.546;9.896;2024-02-15T01:47:23;2.43;;;1.60;;
21114;SDS011;10715;48.546;9.896;2024-02-15T01:49:49;2.77;;;1.57;;
21114;SDS011;10715;48.546;9.896;2024-02-15T01:52:17;3.33;;;1.30;;
21114;SDS011;10715;48.546;9.896;2024-02-15T01:54:43;1.60;;;1.30;;
21114;SDS011;10715;48.546;9.896;2024-02-15T01:57:11;1.63;;;1.27;;
21114;SDS011;10715;48.546;9.896;2024-02-15T01:59:36;5.83;;;2.00;;
21114;SDS011;10715;48.546;9.896;2024-02-15T02:02:02;3.10;;;1.90;;
21114;SDS011;10715;48.546;9.896;2024-02-15T02:04:33;1.60;;;0.90;;
21114;SDS011;10715;48.546;9.896;2024-02-15T02:06:59;1.70;;;1.10;;
21114;SDS011;10715;48.546;9.896;2024-02-15T02:09:25;2.80;;;1.47;;
21114;SDS011;10715;48.546;9.896;2024-02-15T02:11:51;2.53;;;1.10;;
21114;SDS011;10715;48.546;9.896;2024-02-15T02:14:17;1.90;;;1.60;;
21114;SDS011;10715;48.546;9.896;2024-02-15T02:16:45;1.40;;;1.20;;
21114;SDS011;10715;48.546;9.896;2024-02-15T02:19:11;4.07;;;2.33;;
21114;SDS011;10715;48.546;9.896;2024-02-15T02:21:37;2.60;;;1.97;;
21114;SDS011;10715;48.546;9.896;2024-02-15T02:24:06;2.00;;;1.63;;
21114;SDS011;10715;48.546;9.896;2024-02-15T02:26:45;5.23;;;1.23;;
21114;SDS011;10715;48.546;9.896;2024-02-15T02:29:11;1.60;;;1.33;;
21114;SDS011;10715;48.546;9.896;2024-02-15T02:31:39;2.67;;;2.20;;
21114;SDS011;10715;48.546;9.896;2024-02-15T02:34:05;1.20;;;0.90;;
21114;SDS011;10715;48.546;9.896;2024-02-15T02:36:32;0.93;;;0.80;;
21114;SDS011;10715;48.546;9.896;2024-02-15T02:38:58;0.90;;;0.70;;
21114;SDS011;10715;48.546;9.896;2024-02-15T02:41:26;1.30;;;0.70;;
21114;SDS011;10715;48.546;9.896;2024-02-15T02:43:53;1.43;;;0.80;;
21114;SDS011;10715;48.546;9.896;2024-02-15T02:46:20;1.30;;;1.00;;
21114;SDS011;10715;48.546;9.896;2024-02-15T02:48:46;1.33;;;0.60;;
21114;SDS011;10715;48.546;9.896;2024-02-15T02:51:12;1.33;;;0.73;;
21114;SDS011;10715;48.546;9.896;2024-02-15T02:53:37;0.90;;;0.40;;
21114;SDS011;10715;48.546;9.896;2024-02-15T02:56:03;0.70;;;0.50;;
21114;SDS011;10715;48.546;9.896;2024-02-15T02:58:29;2.03;;;0.83;;
21114;SDS011;10715;48.546;9.896;2024-02-15T03:00:55;0.80;;;0.43;;
21114;SDS011;10715;48.546;9.896;2024-02-15T03:03:23;1.00;;;0.90;;
21114;SDS011;10715;48.546;9.896;2024-02-15T03:05:49;1.57;;;0.70;;
21114;SDS011;10715;48.546;9.896;2024-02-15T03:08:14;1.00;;;0.60;;
21114;SDS011;10715;48.546;9.896;2024-02-15T03:10:42;0.83;;;0.47;;
21114;SDS011;10715;48.546;9.896;2024-02-15T03:13:08;0.80;;;0.60;;
21114;SDS011;10715;48.546;9.896;2024-02-15T03:15:34;0.93;;;0.73;;
21114;SDS011;10715;48.546;9.896;2024-02-15T03:18:00;0.90;;;0.50;;
21114;SDS011;10715;48.546;9.896;2024-02-15T03:20:32;1.50;;;0.60;;
21114;SDS011;10715;48.546;9.896;2024-02-15T03:22:59;2.20;;;0.80;;
21114;SDS011;10715;48.546;9.896;2024-02-15T03:25:26;1.00;;;0.60;;
21114;SDS011;10715;48.546;9.896;2024-02-15T03:27:57;1.43;;;1.33;;
21114;SDS011;10715;48.546;9.896;2024-02-15T03:30:25;0.97;;;0.50;;
21114;SDS011;10715;48.546;9.896;2024-02-15T03:32:51;1.23;;;0.50;;
21114;SDS011;10715;48.546;9.896;2024-02-15T03:35:18;1.20;;;0.70;;
21114;SDS011;10715;48.546;9.896;2024-02-15T03:37:45;1.20;;;0.70;;
21114;SDS011;10715;48.546;9.896;2024-02-15T03:40:11;0.90;;;0.60;;
21114;SDS011;10715;48.546;9.896;2024-02-15T03:42:37;1.00;;;0.60;;
21114;SDS011;10715;48.546;9.896;2024-02-15T03:45:03;5.00;;;0.53;;
21114;SDS011;10715;48.546;9.896;2024-02-15T03:47:31;3.03;;;0.60;;
21114;SDS011;10715;48.546;9.896;2024-02-15T03:49:58;1.03;;;0.50;;
21114;SDS011;10715;48.546;9.896;2024-02-15T03:52:31;1.03;;;0.67;;
21114;SDS011;10715;48.546;9.896;2024-02-15T03:54:57;1.10;;;0.50;;
21114;SDS011;10715;48.546;9.896;2024-02-15T03:57:24;2.70;;;2.50;;
21114;SDS011;10715;48.546;9.896;2024-02-15T03:59:51;1.10;;;0.50;;
21114;SDS011;10715;48.546;9.896;2024-02-15T04:02:22;0.80;;;0.50;;
21114;SDS011;10715;48.546;9.896;2024-02-15T04:04:49;3.23;;;0.63;;
21114;SDS011;10715;48.546;9.896;2024-02-15T04:07:17;1.10;;;0.47;;
21114;SDS011;10715;48.546;9.896;2024-02-15T04:09:44;0.90;;;0.50;;
21114;SDS011;10715;48.546;9.896;2024-02-15T04:12:10;2.40;;;1.00;;
21114;SDS011;10715;48.546;9.896;2024-02-15T04:14:36;0.90;;;0.53;;
21114;SDS011;10715;48.546;9.896;2024-02-15T04:17:05;0.70;;;0.50;;
21114;SDS011;10715;48.546;9.896;2024-02-15T04:19:31;1.00;;;0.60;;
21114;SDS011;10715;48.546;9.896;2024-02-15T04:21:58;2.03;;;0.90;;
21114;SDS011;10715;48.546;9.896;2024-02-15T04:24:25;1.13;;;1.00;;
21114;SDS011;10715;48.546;9.896;2024-02-15T04:26:51;0.90;;;0.70;;
21114;SDS011;10715;48.546;9.896;2024-02-15T04:29:17;0.90;;;0.60;;
21114;SDS011;10715;48.546;9.896;2024-02-15T04:31:45;1.03;;;0.67;;
21114;SDS011;10715;48.546;9.896;2024-02-15T04:34:14;0.93;;;0.83;;
21114;SDS011;10715;48.546;9.896;2024-02-15T04:36:45;0.90;;;0.70;;
21114;SDS011;10715;48.546;9.896;2024-02-15T04:39:18;0.90;;;0.70;;
21114;SDS011;10715;48.546;9.896;2024-02-15T04:41:52;0.80;;;0.60;;
21114;SDS011;10715;48.546;9.896;2024-02-15T04:44:18;1.17;;;0.70;;
21114;SDS011;10715;48.546;9.896;2024-02-15T04:46:51;0.70;;;0.50;;
21114;SDS011;10715;48.546;9.896;2024-02-15T04:49:18;1.70;;;0.50;;
21114;SDS011;10715;48.546;9.896;2024-02-15T04:51:44;1.20;;;0.57;;
21114;SDS011;10715;48.546;9.896;2024-02-15T04:54:10;2.70;;;1.00;;
21114;SDS011;10715;48.546;9.896;2024-02-15T04:56:41;5.87;;;0.87;;
21114;SDS011;10715;48.546;9.896;2024-02-15T04:59:08;1.73;;;0.60;;
21114;SDS011;10715;48.546;9.896;2024-02-15T05:01:39;1.47;;;0.60;;
21114;SDS011;10715;48.546;9.896;2024-02-15T05:04:07;0.93;;;0.70;;
21114;SDS011;10715;48.546;9.896;2024-02-15T05:06:34;0.90;;;0.60;;
21114;SDS011;10715;48.546;9.896;2024-02-15T05:09:01;3.63;;;0.70;;
21114;SDS011;10715;48.546;9.896;2024-02-15T05:11:32;0.90;;;0.50;;
21114;SDS011;10715;48.546;9.896;2024-02-15T05:14:01;1.33;;;0.80;;
21114;SDS011;10715;48.546;9.896;2024-02-15T05:16:32;0.93;;;0.50;;
21114;SDS011;10715;48.546;9.896;2024-02-15T05:18:58;0.70;;;0.50;;
21114;SDS011;10715;48.546;9.896;2024-02-15T05:21:24;0.87;;;0.63;;
21114;SDS011;10715;48.546;9.896;2024-02-15T05:23:50;0.90;;;0.50;;
21114;SDS011;10715;48.546;9.896;2024-02-15T05:26:17;4.73;;;0.63;;
21114;SDS011;10715;48.546;9.896;2024-02-15T05:28:48;4.60;;;3.23;;
21114;SDS011;10715;48.546;9.896;2024-02-15T05:31:21;4.37;;;1.73;;
21114;SDS011;10715;48.546;9.896;2024-02-15T05:33:50;12.67;;;4.30;;
21114;SDS011;10715;48.546;9.896;2024-02-15T05:36:19;21.03;;;9.13;;
21114;SDS011;10715;48.546;9.896;2024-02-15T05:38:50;25.93;;;11.17;;
21114;SDS011;10715;48.546;9.896;2024-02-15T05:41:17;20.03;;;8.87;;
21114;SDS011;10715;48.546;9.896;2024-02-15T05:43:44;8.20;;;4.70;;
21114;SDS011;10715;48.546;9.896;2024-02-15T05:46:11;4.67;;;2.90;;
21114;SDS011;10715;48.546;9.896;2024-02-15T05:48:37;2.33;;;1.30;;
21114;SDS011;10715;48.546;9.896;2024-02-15T05:51:05;2.87;;;1.07;;
21114;SDS011;10715;48.546;9.896;2024-02-15T05:53:32;3.53;;;1.27;;
21114;SDS011;10715;48.546;9.896;2024-02-15T05:56:00;1.77;;;1.30;;
21114;SDS011;10715;48.546;9.896;2024-02-15T05:58:33;0.90;;;0.77;;
21114;SDS011;10715;48.546;9.896;2024-02-15T06:01:00;1.47;;;0.77;;
21114;SDS011;10715;48.546;9.896;2024-02-15T06:03:30;1.70;;;0.80;;
21114;SDS011;10715;48.546;9.896;2024-02-15T06:05:59;1.87;;;1.37;;
21114;SDS011;10715;48.546;9.896;2024-02-15T06:08:27;1.73;;;1.33;;
21114;SDS011;10715;48.546;9.896;2024-02-15T06:10:56;1.20;;;0.80;;
21114;SDS011;10715;48.546;9.896;2024-02-15T06:13:23;2.60;;;2.03;;
21114;SDS011;10715;48.546;9.896;2024-02-15T06:15:49;1.17;;;0.90;;
21114;SDS011;10715;48.546;9.896;2024-02-15T06:18:22;3.43;;;2.53;;
21114;SDS011;10715;48.546;9.896;2024-02-15T06:20:58;1.87;;;1.10;;
21114;SDS011;10715;48.546;9.896;2024-02-15T06:23:25;0.97;;;0.60;;
21114;SDS011;10715;48.546;9.896;2024-02-15T06:25:53;1.10;;;0.80;;
21114;SDS011;10715;48.546;9.896;2024-02-15T06:28:20;0.93;;;0.50;;
21114;SDS011;10715;48.546;9.896;2024-02-15T06:31:07;2.07;;;1.00;;
21114;SDS011;10715;48.546;9.896;2024-02-15T06:33:52;1.67;;;0.70;;
21114;SDS011;10715;48.546;9.896;2024-02-15T06:39:29;1.00;;;0.50;;
21114;SDS011;10715;48.546;9.896;2024-02-15T06:42:10;4.80;;;0.70;;
21114;SDS011;10715;48.546;9.896;2024-02-15T06:44:40;1.67;;;0.60;;
21114;SDS011;10715;48.546;9.896;2024-02-15T06:47:05;2.27;;;1.13;;
21114;SDS011;10715;48.546;9.896;2024-02-15T06:49:32;1.50;;;0.70;;
21114;SDS011;10715;48.546;9.896;2024-02-15T06:51:58;1.77;;;1.07;;
21114;SDS011;10715;48.546;9.896;2024-02-15T06:54:27;4.00;;;0.70;;
21114;SDS011;10715;48.546;9.896;2024-02-15T06:56:52;6.70;;;0.73;;
21114;SDS011;10715;48.546;9.896;2024-02-15T06:59:19;1.50;;;0.83;;
21114;SDS011;10715;48.546;9.896;2024-02-15T07:01:47;1.10;;;0.73;;
21114;SDS011;10715;48.546;9.896;2024-02-15T07:04:20;4.50;;;2.60;;
21114;SDS011;10715;48.546;9.896;2024-02-15T07:06:46;0.90;;;0.40;;
21114;SDS011;10715;48.546;9.896;2024-02-15T07:09:13;1.87;;;1.37;;
21114;SDS011;10715;48.546;9.896;2024-02-15T07:11:44;1.30;;;0.50;;
21114;SDS011;10715;48.546;9.896;2024-02-15T07:14:11;1.90;;;0.90;;
21114;SDS011;10715;48.546;9.896;2024-02-15T07:16:37;5.83;;;0.80;;
21114;SDS011;10715;48.546;9.896;2024-02-15T07:19:04;1.67;;;0.80;;
21114;SDS011;10715;48.546;9.896;2024-02-15T07:21:30;3.57;;;0.90;;
21114;SDS011;10715;48.546;9.896;2024-02-15T07:23:57;1.00;;;0.60;;
21114;SDS011;10715;48.546;9.896;2024-02-15T07:26:24;1.47;;;0.70;;
21114;SDS011;10715;48.546;9.896;2024-02-15T07:28:54;1.60;;;1.50;;
21114;SDS011;10715;48.546;9.896;2024-02-15T07:31:20;2.40;;;1.27;;
21114;SDS011;10715;48.546;9.896;2024-02-15T07:33:50;0.90;;;0.70;;
21114;SDS011;10715;48.546;9.896;2024-02-15T07:36:19;1.20;;;0.70;;
21114;SDS011;10715;48.546;9.896;2024-02-15T07:38:52;1.97;;;0.80;;
21114;SDS011;10715;48.546;9.896;2024-02-15T07:41:20;3.70;;;0.90;;
21114;SDS011;10715;48.546;9.896;2024-02-15T07:43:47;12.80;;;0.63;;
21114;SDS011;10715;48.546;9.896;2024-02-15T07:46:19;1.47;;;0.60;;
21114;SDS011;10715;48.546;9.896;2024-02-15T07:48:45;1.10;;;0.50;;
21114;SDS011;10715;48.546;9.896;2024-02-15T07:51:15;1.10;;;0.63;;
21114;SDS011;10715;48.546;9.896;2024-02-15T07:53:43;1.80;;;0.80;;
21114;SDS011;10715;48.546;9.896;2024-02-15T07:56:14;3.50;;;0.60;;
21114;SDS011;10715;48.546;9.896;2024-02-15T07:58:41;1.47;;;1.13;;
21114;SDS011;10715;48.546;9.896;2024-02-15T08:01:11;1.20;;;0.60;;
21114;SDS011;10715;48.546;9.896;2024-02-15T08:03:38;2.60;;;0.50;;
21114;SDS011;10715;48.546;9.896;2024-02-15T08:06:10;1.10;;;0.60;;
21114;SDS011;10715;48.546;9.896;2024-02-15T08:08:38;1.63;;;0.93;;
21114;SDS011;10715;48.546;9.896;2024-02-15T08:11:06;2.90;;;2.00;;
21114;SDS011;10715;48.546;9.896;2024-02-15T08:13:40;3.00;;;2.57;;
21114;SDS011;10715;48.546;9.896;2024-02-15T08:16:09;5.40;;;2.93;;
21114;SDS011;10715;48.546;9.896;2024-02-15T08:18:36;3.70;;;3.30;;
21114;SDS011;10715;48.546;9.896;2024-02-15T08:21:02;3.13;;;1.83;;
21114;SDS011;10715;48.546;9.896;2024-02-15T08:23:29;1.73;;;1.63;;
21114;SDS011;10715;48.546;9.896;2024-02-15T08:25:55;2.27;;;1.07;;
21114;SDS011;10715;48.546;9.896;2024-02-15T08:28:22;1.47;;;1.00;;
21114;SDS011;10715;48.546;9.896;2024-02-15T08:30:48;4.03;;;3.00;;
21114;SDS011;10715;48.546;9.896;2024-02-15T08:33:14;2.90;;;2.10;;
21114;SDS011;10715;48.546;9.896;2024-02-15T08:35:40;9.27;;;4.93;;
21114;SDS011;10715;48.546;9.896;2024-02-15T08:38:06;7.13;;;6.33;;
21114;SDS011;10715;48.546;9.896;2024-02-15T08:40:32;5.70;;;4.07;;
21114;SDS011;10715;48.546;9.896;2024-02-15T08:42:57;3.83;;;3.53;;
21114;SDS011;10715;48.546;9.896;2024-02-15T08:45:23;2.50;;;2.30;;
21114;SDS011;10715;48.546;9.896;2024-02-15T08:47:49;3.07;;;2.83;;
21114;SDS011;10715;48.546;9.896;2024-02-15T08:50:18;3.20;;;3.00;;
21114;SDS011;10715;48.546;9.896;2024-02-15T08:52:45;12.13;;;4.53;;
21114;SDS011;10715;48.546;9.896;2024-02-15T08:55:12;8.50;;;6.33;;
21114;SDS011;10715;48.546;9.896;2024-02-15T08:57:40;7.57;;;6.80;;
21114;SDS011;10715;48.546;9.896;2024-02-15T09:00:09;5.43;;;5.10;;
21114;SDS011;10715;48.546;9.896;2024-02-15T09:02:44;4.00;;;3.60;;
21114;SDS011;10715;48.546;9.896;2024-02-15T09:05:10;3.37;;;2.87;;
21114;SDS011;10715;48.546;9.896;2024-02-15T09:07:39;5.70;;;2.40;;
21114;SDS011;10715;48.546;9.896;2024-02-15T09:10:09;2.97;;;2.00;;
21114;SDS011;10715;48.546;9.896;2024-02-15T09:12:39;4.43;;;1.57;;
21114;SDS011;10715;48.546;9.896;2024-02-15T09:15:06;4.60;;;2.33;;
21114;SDS011;10715;48.546;9.896;2024-02-15T09:17:33;2.70;;;1.97;;
21114;SDS011;10715;48.546;9.896;2024-02-15T09:20:05;3.00;;;1.93;;
21114;SDS011;10715;48.546;9.896;2024-02-15T09:22:32;2.40;;;2.00;;
21114;SDS011;10715;48.546;9.896;2024-02-15T09:24:58;6.70;;;2.13;;
21114;SDS011;10715;48.546;9.896;2024-02-15T09:27:23;1.97;;;1.53;;
21114;SDS011;10715;48.546;9.896;2024-02-15T09:29:49;6.77;;;2.37;;
21114;SDS011;10715;48.546;9.896;2024-02-15T09:32:15;1.73;;;1.40;;
21114;SDS011;10715;48.546;9.896;2024-02-15T09:34:40;1.80;;;1.70;;
21114;SDS011;10715;48.546;9.896;2024-02-15T09:37:06;1.37;;;1.10;;
21114;SDS011;10715;48.546;9.896;2024-02-15T09:39:32;1.50;;;1.00;;
21114;SDS011;10715;48.546;9.896;2024-02-15T09:41:58;4.27;;;1.27;;
21114;SDS011;10715;48.546;9.896;2024-02-15T09:44:24;2.17;;;1.13;;
21114;SDS011;10715;48.546;9.896;2024-02-15T09:47:03;4.30;;;0.83;;
21114;SDS011;10715;48.546;9.896;2024-02-15T09:49:33;6.40;;;1.27;;
21114;SDS011;10715;48.546;9.896;2024-02-15T09:52:01;0.90;;;0.70;;
21114;SDS011;10715;48.546;9.896;2024-02-15T09:54:28;1.40;;;0.60;;
21114;SDS011;10715;48.546;9.896;2024-02-15T09:56:55;1.10;;;0.63;;
21114;SDS011;10715;48.546;9.896;2024-02-15T09:59:25;1.20;;;0.60;;
21114;SDS011;10715;48.546;9.896;2024-02-15T10:01:51;1.67;;;0.80;;
21114;SDS011;10715;48.546;9.896;2024-02-15T10:04:23;0.90;;;0.50;;
21114;SDS011;10715;48.546;9.896;2024-02-15T10:06:50;1.03;;;0.67;;
21114;SDS011;10715;48.546;9.896;2024-02-15T10:09:26;1.17;;;0.83;;
21114;SDS011;10715;48.546;9.896;2024-02-15T10:11:57;1.00;;;0.60;;
21114;SDS011;10715;48.546;9.896;2024-02-15T10:14:24;2.17;;;1.73;;
21114;SDS011;10715;48.546;9.896;2024-02-15T10:16:56;0.73;;;0.50;;
21114;SDS011;10715;48.546;9.896;2024-02-15T10:19:22;6.03;;;0.73;;
21114;SDS011;10715;48.546;9.896;2024-02-15T10:21:52;4.60;;;0.70;;
21114;SDS011;10715;48.546;9.896;2024-02-15T10:24:31;1.33;;;0.60;;
21114;SDS011;10715;48.546;9.896;2024-02-15T10:27:00;1.97;;;0.50;;
21114;SDS011;10715;48.546;9.896;2024-02-15T10:29:33;1.37;;;0.90;;
21114;SDS011;10715;48.546;9.896;2024-02-15T10:32:00;1.60;;;1.00;;
21114;SDS011;10715;48.546;9.896;2024-02-15T10:34:26;1.50;;;1.10;;
21114;SDS011;10715;48.546;9.896;2024-02-15T10:37:14;2.87;;;1.17;;
21114;SDS011;10715;48.546;9.896;2024-02-15T10:39:41;3.27;;;1.13;;
21114;SDS011;10715;48.546;9.896;2024-02-15T10:42:08;1.13;;;0.77;;
21114;SDS011;10715;48.546;9.896;2024-02-15T10:44:36;1.43;;;1.10;;
21114;SDS011;10715;48.546;9.896;2024-02-15T10:47:03;3.80;;;1.20;;
21114;SDS011;10715;48.546;9.896;2024-02-15T10:49:32;1.67;;;1.27;;
21114;SDS011;10715;48.546;9.896;2024-02-15T10:52:01;1.50;;;0.97;;
21114;SDS011;10715;48.546;9.896;2024-02-15T10:57:06;6.10;;;1.20;;
21114;SDS011;10715;48.546;9.896;2024-02-15T10:59:35;1.57;;;1.00;;
21114;SDS011;10715;48.546;9.896;2024-02-15T11:04:32;2.87;;;0.70;;
21114;SDS011;10715;48.546;9.896;2024-02-15T11:07:01;1.33;;;0.73;;
21114;SDS011;10715;48.546;9.896;2024-02-15T11:09:29;3.23;;;0.90;;
21114;SDS011;10715;48.546;9.896;2024-02-15T11:11:55;0.70;;;0.40;;
21114;SDS011;10715;48.546;9.896;2024-02-15T11:16:54;3.53;;;0.83;;
21114;SDS011;10715;48.546;9.896;2024-02-15T11:22:11;1.10;;;0.60;;
21114;SDS011;10715;48.546;9.896;2024-02-15T11:24:48;3.57;;;0.70;;
21114;SDS011;10715;48.546;9.896;2024-02-15T11:27:25;1.80;;;0.93;;
21114;SDS011;10715;48.546;9.896;2024-02-15T11:32:35;1.20;;;0.90;;
21114;SDS011;10715;48.546;9.896;2024-02-15T11:40:28;1.33;;;1.23;;
21114;SDS011;10715;48.546;9.896;2024-02-15T11:46:16;1.80;;;0.73;;
21114;SDS011;10715;48.546;9.896;2024-02-15T11:48:48;2.80;;;1.20;;
21114;SDS011;10715;48.546;9.896;2024-02-15T11:51:33;2.00;;;1.43;;
21114;SDS011;10715;48.546;9.896;2024-02-15T11:54:10;3.40;;;1.03;;
21114;SDS011;10715;48.546;9.896;2024-02-15T11:59:08;2.43;;;1.13;;
21114;SDS011;10715;48.546;9.896;2024-02-15T12:01:43;3.83;;;1.00;;
21114;SDS011;10715;48.546;9.896;2024-02-15T12:04:28;2.60;;;0.97;;
21114;SDS011;10715;48.546;9.896;2024-02-15T12:07:16;1.33;;;1.00;;
21114;SDS011;10715;48.546;9.896;2024-02-15T12:10:01;2.20;;;1.27;;
21114;SDS011;10715;48.546;9.896;2024-02-15T12:12:51;2.00;;;1.20;;
21114;SDS011;10715;48.546;9.896;2024-02-15T12:15:36;3.20;;;0.90;;
21114;SDS011;10715;48.546;9.896;2024-02-15T12:18:21;7.33;;;1.00;;
21114;SDS011;10715;48.546;9.896;2024-02-15T12:21:07;1.50;;;0.77;;
21114;SDS011;10715;48.546;9.896;2024-02-15T12:23:35;1.10;;;1.00;;
21114;SDS011;10715;48.546;9.896;2024-02-15T12:26:03;1.53;;;1.20;;
21114;SDS011;10715;48.546;9.896;2024-02-15T12:28:29;1.23;;;0.60;;
21114;SDS011;10715;48.546;9.896;2024-02-15T12:30:56;1.53;;;0.70;;
21114;SDS011;10715;48.546;9.896;2024-02-15T12:33:25;1.03;;;0.80;;
21114;SDS011;10715;48.546;9.896;2024-02-15T12:35:52;1.73;;;1.00;;
21114;SDS011;10715;48.546;9.896;2024-02-15T12:38:30;2.40;;;0.70;;
21114;SDS011;10715;48.546;9.896;2024-02-15T12:40:56;1.50;;;0.70;;
21114;SDS011;10715;48.546;9.896;2024-02-15T12:43:22;1.10;;;0.77;;
21114;SDS011;10715;48.546;9.896;2024-02-15T12:45:48;2.90;;;0.90;;
21114;SDS011;10715;48.546;9.896;2024-02-15T12:48:13;1.10;;;0.87;;
21114;SDS011;10715;48.546;9.896;2024-02-15T12:50:44;1.30;;;1.20;;
21114;SDS011;10715;48.546;9.896;2024-02-15T12:53:09;1.20;;;0.70;;
21114;SDS011;10715;48.546;9.896;2024-02-15T12:55:36;1.77;;;1.07;;
21114;SDS011;10715;48.546;9.896;2024-02-15T12:58:06;1.00;;;0.77;;
21114;SDS011;10715;48.546;9.896;2024-02-15T13:00:38;2.50;;;0.83;;
21114;SDS011;10715;48.546;9.896;2024-02-15T13:03:05;3.27;;;1.10;;
21114;SDS011;10715;48.546;9.896;2024-02-15T13:05:36;1.50;;;0.77;;
21114;SDS011;10715;48.546;9.896;2024-02-15T13:08:02;3.53;;;1.33;;
21114;SDS011;10715;48.546;9.896;2024-02-15T13:10:30;1.20;;;0.70;;
21114;SDS011;10715;48.546;9.896;2024-02-15T13:12:57;0.80;;;0.50;;
21114;SDS011;10715;48.546;9.896;2024-02-15T13:15:23;2.37;;;1.03;;
21114;SDS011;10715;48.546;9.896;2024-02-15T13:17:57;1.07;;;0.67;;
21114;SDS011;10715;48.546;9.896;2024-02-15T13:20:24;2.50;;;0.50;;
21114;SDS011;10715;48.546;9.896;2024-02-15T13:23:05;1.53;;;0.90;;
21114;SDS011;10715;48.546;9.896;2024-02-15T13:25:36;0.97;;;0.60;;
21114;SDS011;10715;48.546;9.896;2024-02-15T13:28:11;1.00;;;0.60;;
21114;SDS011;10715;48.546;9.896;2024-02-15T13:30:37;0.93;;;0.60;;
21114;SDS011;10715;48.546;9.896;2024-02-15T13:33:04;16.70;;;1.37;;
21114;SDS011;10715;48.546;9.896;2024-02-15T13:35:31;2.03;;;0.63;;
21114;SDS011;10715;48.546;9.896;2024-02-15T13:37:57;0.87;;;0.60;;
21114;SDS011;10715;48.546;9.896;2024-02-15T13:40:26;2.10;;;0.60;;
21114;SDS011;10715;48.546;9.896;2024-02-15T13:42:54;1.40;;;0.77;;
21114;SDS011;10715;48.546;9.896;2024-02-15T13:45:24;1.50;;;0.83;;
21114;SDS011;10715;48.546;9.896;2024-02-15T13:48:10;1.90;;;0.70;;
21114;SDS011;10715;48.546;9.896;2024-02-15T13:50:40;1.30;;;0.70;;
21114;SDS011;10715;48.546;9.896;2024-02-15T13:53:05;1.03;;;0.67;;
21114;SDS011;10715;48.546;9.896;2024-02-15T13:55:31;1.20;;;0.60;;
21114;SDS011;10715;48.546;9.896;2024-02-15T13:57:57;1.10;;;0.80;;
21114;SDS011;10715;48.546;9.896;2024-02-15T14:00:25;2.77;;;2.50;;
21114;SDS011;10715;48.546;9.896;2024-02-15T14:03:02;3.60;;;0.67;;
21114;SDS011;10715;48.546;9.896;2024-02-15T14:05:31;1.40;;;1.20;;
21114;SDS011;10715;48.546;9.896;2024-02-15T14:10:29;1.23;;;0.80;;
21114;SDS011;10715;48.546;9.896;2024-02-15T14:13:00;1.00;;;0.60;;
21114;SDS011;10715;48.546;9.896;2024-02-15T14:15:36;1.70;;;1.47;;
21114;SDS011;10715;48.546;9.896;2024-02-15T14:18:04;2.70;;;1.47;;
21114;SDS011;10715;48.546;9.896;2024-02-15T14:20:31;2.07;;;1.00;;
21114;SDS011;10715;48.546;9.896;2024-02-15T14:22:57;1.67;;;1.37;;
21114;SDS011;10715;48.546;9.896;2024-02-15T14:25:23;1.87;;;1.17;;
21114;SDS011;10715;48.546;9.896;2024-02-15T14:27:50;1.43;;;1.00;;
21114;SDS011;10715;48.546;9.896;2024-02-15T14:30:18;2.20;;;1.47;;
21114;SDS011;10715;48.546;9.896;2024-02-15T14:33:03;1.70;;;0.90;;
21114;SDS011;10715;48.546;9.896;2024-02-15T14:35:32;2.33;;;1.73;;
21114;SDS011;10715;48.546;9.896;2024-02-15T14:38:03;1.30;;;1.10;;
21114;SDS011;10715;48.546;9.896;2024-02-15T14:40:35;2.03;;;1.03;;
21114;SDS011;10715;48.546;9.896;2024-02-15T14:43:02;2.03;;;1.10;;
21114;SDS011;10715;48.546;9.896;2024-02-15T14:45:30;2.27;;;1.00;;
21114;SDS011;10715;48.546;9.896;2024-02-15T14:47:57;2.03;;;1.03;;
21114;SDS011;10715;48.546;9.896;2024-02-15T14:50:24;2.60;;;1.27;;
21114;SDS011;10715;48.546;9.896;2024-02-15T14:52:50;1.33;;;0.90;;
21114;SDS011;10715;48.546;9.896;2024-02-15T14:55:18;5.63;;;1.10;;
21114;SDS011;10715;48.546;9.896;2024-02-15T14:57:44;2.00;;;0.90;;
21114;SDS011;10715;48.546;9.896;2024-02-15T15:00:11;1.87;;;1.20;;
21114;SDS011;10715;48.546;9.896;2024-02-15T15:02:42;1.30;;;0.80;;
21114;SDS011;10715;48.546;9.896;2024-02-15T15:05:14;6.40;;;0.97;;
21114;SDS011;10715;48.546;9.896;2024-02-15T15:07:59;8.23;;;2.20;;
21114;SDS011;10715;48.546;9.896;2024-02-15T15:10:47;1.80;;;0.70;;
21114;SDS011;10715;48.546;9.896;2024-02-15T15:13:32;2.00;;;1.10;;
21114;SDS011;10715;48.546;9.896;2024-02-15T15:15:58;1.30;;;0.77;;
21114;SDS011;10715;48.546;9.896;2024-02-15T15:18:25;1.13;;;1.00;;
21114;SDS011;10715;48.546;9.896;2024-02-15T15:20:51;1.60;;;1.00;;
21114;SDS011;10715;48.546;9.896;2024-02-15T15:23:17;2.60;;;1.43;;
21114;SDS011;10715;48.546;9.896;2024-02-15T15:25:43;1.63;;;1.53;;